Time;durP1;ratioP1;P1;durP2;ratioP2;P2;SDS_P1;SDS_P2;PMS_P1;PMS_P2;Temp;Humidity;BMP_temperature;BMP_pressure;BME280_temperature;BME280_humidity;BME280_pressure;Samples;Min_cycle;Max_cycle;Signal;HPM_P1;HPM_P2
2023/01/16 00:00:37;;;;;;;3.57;2.43;;;5.80;99.90;;;;;;5135321;27;20187;-71
2023/01/16 00:03:06;;;;;;;3.37;2.60;;;5.80;99.90;;;;;;5135272;27;20553;-70
2023/01/16 00:05:35;;;;;;;3.13;2.50;;;5.80;99.90;;;;;;5135302;27;20196;-70
2023/01/16 00:08:04;;;;;;;2.50;2.30;;;5.90;99.90;;;;;;5135299;27;20240;-70
2023/01/16 00:10:33;;;;;;;3.20;2.40;;;5.90;99.90;;;;;;5134311;27;20235;-70
2023/01/16 00:13:02;;;;;;;4.50;2.70;;;5.90;99.90;;;;;;5134877;27;20611;-70
2023/01/16 00:15:32;;;;;;;3.03;2.63;;;5.80;99.90;;;;;;5135216;27;20183;-70
2023/01/16 00:18:01;;;;;;;2.27;2.07;;;5.90;99.90;;;;;;5132886;27;20223;-69
2023/01/16 00:20:30;;;;;;;2.87;2.53;;;5.80;99.90;;;;;;5123370;27;20200;-72
2023/01/16 00:22:59;;;;;;;3.57;2.50;;;5.80;99.90;;;;;;5114260;28;20660;-69
2023/01/16 00:25:28;;;;;;;2.40;2.20;;;5.80;99.90;;;;;;5114014;28;20226;-77
2023/01/16 00:27:57;;;;;;;5.27;3.00;;;5.90;99.90;;;;;;5114465;28;20218;-70
2023/01/16 00:30:26;;;;;;;2.70;2.50;;;5.90;99.90;;;;;;5114108;28;20188;-70
2023/01/16 00:32:56;;;;;;;2.60;2.30;;;5.80;99.90;;;;;;5113863;28;20196;-70
2023/01/16 00:35:26;;;;;;;2.43;2.23;;;5.80;99.90;;;;;;5114107;28;20199;-71
2023/01/16 00:37:55;;;;;;;3.30;2.10;;;5.80;99.90;;;;;;5113958;28;20216;-72
2023/01/16 00:40:24;;;;;;;2.40;2.20;;;5.80;99.90;;;;;;5112918;28;20208;-70
2023/01/16 00:42:53;;;;;;;2.50;2.30;;;5.80;99.90;;;;;;5126868;27;20995;-70
2023/01/16 00:45:22;;;;;;;3.40;2.17;;;5.70;99.90;;;;;;5132570;27;20232;-70
2023/01/16 00:47:51;;;;;;;4.07;2.60;;;5.80;99.90;;;;;;5133821;27;20210;-70
2023/01/16 00:50:22;;;;;;;4.90;2.13;;;5.70;99.90;;;;;;5134465;27;20732;-69
2023/01/16 00:52:51;;;;;;;2.73;2.37;;;5.70;99.90;;;;;;5133987;27;20195;-70
2023/01/16 00:55:20;;;;;;;4.10;2.40;;;5.70;99.90;;;;;;5125782;27;20260;-69
2023/01/16 00:57:49;;;;;;;2.63;2.43;;;5.70;99.90;;;;;;5113857;27;20232;-79
2023/01/16 01:00:21;;;;;;;3.67;2.37;;;5.70;99.90;;;;;;5113555;28;20199;-74
2023/01/16 01:02:50;;;;;;;3.17;2.80;;;5.80;99.90;;;;;;5113799;28;20223;-70
2023/01/16 01:05:19;;;;;;;3.47;2.10;;;5.80;99.90;;;;;;5113944;28;20198;-69
2023/01/16 01:07:49;;;;;;;3.53;2.70;;;5.90;99.90;;;;;;5112311;28;20204;-69
2023/01/16 01:10:18;;;;;;;2.87;2.40;;;5.90;99.90;;;;;;5121463;27;20199;-70
2023/01/16 01:12:47;;;;;;;2.73;2.50;;;5.90;99.90;;;;;;5127516;27;20604;-69
2023/01/16 01:15:16;;;;;;;2.07;1.97;;;5.90;99.90;;;;;;5114697;27;20232;-69
2023/01/16 01:17:45;;;;;;;2.60;2.40;;;5.90;99.90;;;;;;5112054;28;20784;-71
2023/01/16 01:20:14;;;;;;;2.60;2.40;;;5.80;99.90;;;;;;5112242;28;20277;-70
2023/01/16 01:22:44;;;;;;;5.03;2.47;;;5.80;99.90;;;;;;5112778;28;20244;-69
2023/01/16 01:25:15;;;;;;;3.10;2.60;;;5.70;99.90;;;;;;5113002;28;20669;-69
2023/01/16 01:27:44;;;;;;;5.03;2.17;;;5.80;99.90;;;;;;5111930;28;20303;-68
2023/01/16 01:30:13;;;;;;;3.23;2.27;;;5.70;99.90;;;;;;5112957;28;20223;-69
2023/01/16 01:32:42;;;;;;;2.50;2.30;;;5.60;99.90;;;;;;5113151;28;20252;-69
2023/01/16 01:35:12;;;;;;;2.63;2.23;;;5.50;99.90;;;;;;5113024;28;20194;-69
2023/01/16 01:37:41;;;;;;;2.53;2.20;;;5.50;99.90;;;;;;5113299;28;20229;-71
2023/01/16 01:40:12;;;;;;;3.73;2.43;;;5.50;99.90;;;;;;5112813;28;20200;-69
2023/01/16 01:42:51;;;;;;;2.07;1.67;;;5.40;99.90;;;;;;5115861;27;20287;-70
2023/01/16 01:45:22;;;;;;;3.13;2.40;;;5.50;99.90;;;;;;5131769;27;20249;-70
2023/01/16 01:47:58;;;;;;;2.53;2.27;;;5.60;99.90;;;;;;5132167;27;20567;-72
2023/01/16 01:50:40;;;;;;;2.37;2.20;;;5.60;99.90;;;;;;5121307;27;20206;-71
2023/01/16 01:53:13;;;;;;;2.47;2.37;;;5.60;99.90;;;;;;5133133;27;20252;-69
2023/01/16 01:55:45;;;;;;;2.57;2.23;;;5.60;99.90;;;;;;5132864;27;20235;-69
2023/01/16 01:58:21;;;;;;;3.60;2.30;;;5.60;99.90;;;;;;5132944;27;20777;-70
2023/01/16 02:00:57;;;;;;;6.73;2.90;;;5.50;99.90;;;;;;5132849;27;20705;-71
2023/01/16 02:03:32;;;;;;;2.63;2.00;;;5.50;99.90;;;;;;5132527;27;20202;-70
2023/01/16 02:06:07;;;;;;;2.97;2.30;;;5.50;99.90;;;;;;5132632;27;20202;-73
2023/01/16 02:08:37;;;;;;;5.40;2.40;;;5.40;99.90;;;;;;5132734;27;20201;-69
2023/01/16 02:11:25;;;;;;;3.23;2.50;;;5.40;99.90;;;;;;5132586;27;20211;-71
2023/01/16 02:13:58;;;;;;;3.13;1.90;;;5.40;99.90;;;;;;5132778;27;20205;-69
2023/01/16 02:19:23;;;;;;;4.33;2.47;;;5.40;99.90;;;;;;5129462;27;20279;-74
2023/01/16 02:22:45;;;;;;;5.53;2.50;;;5.40;99.90;;;;;;5112192;28;20200;-70
2023/01/16 02:25:39;;;;;;;3.87;2.70;;;5.40;99.90;;;;;;5028943;28;20569;-69
2023/01/16 02:28:40;;;;;;;3.47;2.17;;;5.40;99.90;;;;;;5029262;28;20236;-73
2023/01/16 02:31:29;;;;;;;4.23;2.53;;;5.50;99.90;;;;;;5028914;28;20198;-72
2023/01/16 02:34:18;;;;;;;2.50;2.10;;;5.60;99.90;;;;;;5029113;28;20234;-73
2023/01/16 02:36:55;;;;;;;5.93;2.10;;;5.70;99.90;;;;;;5031513;28;20203;-73
2023/01/16 02:39:33;;;;;;;2.37;2.17;;;5.70;99.90;;;;;;5048678;28;20280;-70
2023/01/16 02:42:09;;;;;;;4.30;2.43;;;5.60;99.90;;;;;;5031935;28;20683;-69
2023/01/16 02:44:45;;;;;;;2.57;2.17;;;5.60;99.90;;;;;;5049228;28;20227;-71
2023/01/16 02:47:24;;;;;;;2.87;2.30;;;5.60;99.90;;;;;;5049736;28;20212;-69
2023/01/16 02:50:03;;;;;;;2.13;2.03;;;5.70;99.90;;;;;;5050032;28;20228;-70
2023/01/16 02:52:38;;;;;;;2.53;2.30;;;5.70;99.90;;;;;;5049868;28;20202;-73
2023/01/16 02:55:13;;;;;;;2.57;2.37;;;5.80;99.90;;;;;;5049601;28;20742;-71
2023/01/16 02:57:47;;;;;;;2.53;2.20;;;5.80;99.90;;;;;;5049649;28;20208;-76
2023/01/16 03:00:19;;;;;;;3.20;2.40;;;5.90;99.90;;;;;;5063198;28;20197;-71
2023/01/16 03:02:50;;;;;;;4.93;2.53;;;5.90;99.90;;;;;;5133048;27;20199;-71
2023/01/16 03:05:19;;;;;;;3.57;2.33;;;5.90;99.90;;;;;;5132855;27;20270;-72
2023/01/16 03:08:20;;;;;;;3.37;2.10;;;5.90;99.90;;;;;;5133130;27;20198;-70
2023/01/16 03:11:13;;;;;;;3.67;2.23;;;5.90;99.90;;;;;;5133059;27;20216;-72
2023/01/16 03:14:11;;;;;;;2.43;1.90;;;5.80;99.90;;;;;;5118943;27;20196;-72
2023/01/16 03:16:52;;;;;;;4.67;2.27;;;5.80;99.90;;;;;;5132727;27;20207;-72
2023/01/16 03:19:32;;;;;;;2.63;2.43;;;5.80;99.90;;;;;;5128733;27;20245;-75
2023/01/16 03:22:11;;;;;;;3.53;2.47;;;5.90;99.90;;;;;;5116458;28;20200;-70
2023/01/16 03:24:53;;;;;;;2.23;2.13;;;5.80;99.90;;;;;;5116500;28;20664;-70
2023/01/16 03:27:34;;;;;;;4.87;2.23;;;5.80;99.90;;;;;;5135958;27;20199;-75
2023/01/16 03:30:10;;;;;;;2.77;2.50;;;5.80;99.90;;;;;;5136967;27;20199;-70
2023/01/16 03:32:44;;;;;;;4.23;2.43;;;5.80;99.90;;;;;;5136749;27;20214;-72
2023/01/16 03:35:18;;;;;;;4.67;2.10;;;5.70;99.90;;;;;;5132552;27;20196;-70
2023/01/16 03:37:50;;;;;;;5.03;2.83;;;5.70;99.90;;;;;;5116084;28;20209;-70
2023/01/16 03:40:24;;;;;;;3.27;2.50;;;5.60;99.90;;;;;;5115861;28;20245;-71
2023/01/16 03:42:58;;;;;;;2.93;2.60;;;5.60;99.90;;;;;;5116198;28;20211;-72
2023/01/16 03:45:33;;;;;;;3.60;2.83;;;5.60;99.90;;;;;;5115932;28;20207;-70
2023/01/16 03:48:06;;;;;;;2.47;2.27;;;5.60;99.90;;;;;;5115992;28;20206;-72
2023/01/16 03:50:38;;;;;;;5.47;2.60;;;5.50;99.90;;;;;;5115797;28;20196;-71
2023/01/16 03:53:10;;;;;;;4.83;2.80;;;5.50;99.90;;;;;;5115919;28;20212;-72
2023/01/16 03:55:45;;;;;;;3.13;2.40;;;5.50;99.90;;;;;;5114405;28;20234;-70
2023/01/16 03:58:20;;;;;;;2.70;2.00;;;5.60;99.90;;;;;;5115689;28;20604;-70
2023/01/16 04:00:55;;;;;;;2.80;2.33;;;5.60;99.90;;;;;;5115740;28;20203;-70
2023/01/16 04:03:29;;;;;;;11.67;7.13;;;5.60;99.90;;;;;;5115675;28;20684;-75
2023/01/16 04:06:09;;;;;;;5.30;2.50;;;5.60;99.90;;;;;;5115426;28;20199;-74
2023/01/16 04:08:40;;;;;;;4.30;2.20;;;5.70;99.90;;;;;;5115700;28;20204;-69
2023/01/16 04:11:10;;;;;;;2.60;2.40;;;5.70;99.90;;;;;;5115565;28;20207;-71
2023/01/16 04:13:40;;;;;;;4.43;2.40;;;5.70;99.90;;;;;;5115525;28;20201;-78
2023/01/16 04:16:14;;;;;;;3.93;2.40;;;5.60;99.90;;;;;;5115486;28;20700;-71
2023/01/16 04:18:44;;;;;;;2.43;2.23;;;5.60;99.90;;;;;;5115228;28;20226;-71
2023/01/16 04:21:14;;;;;;;4.20;2.20;;;5.60;99.90;;;;;;5115344;28;20192;-71
2023/01/16 04:23:44;;;;;;;3.90;2.57;;;5.60;99.90;;;;;;5115160;28;20196;-69
2023/01/16 04:26:13;;;;;;;3.70;2.37;;;5.60;99.90;;;;;;5114968;28;20255;-69
2023/01/16 04:28:41;;;;;;;3.33;2.60;;;5.60;99.90;;;;;;5115069;28;20200;-68
2023/01/16 04:31:10;;;;;;;3.47;2.20;;;5.60;99.90;;;;;;5115078;28;20200;-70
2023/01/16 04:33:39;;;;;;;3.57;2.40;;;5.60;99.90;;;;;;5115070;28;20292;-70
2023/01/16 04:36:09;;;;;;;4.90;2.60;;;5.60;99.90;;;;;;5114884;28;20197;-70
2023/01/16 04:38:39;;;;;;;4.03;2.47;;;5.60;99.90;;;;;;5114854;27;20218;-70
2023/01/16 04:41:08;;;;;;;3.17;2.47;;;5.50;99.90;;;;;;5114955;28;20221;-71
2023/01/16 04:43:36;;;;;;;3.43;2.53;;;5.60;99.90;;;;;;5115005;28;20192;-70
2023/01/16 04:46:05;;;;;;;2.67;2.10;;;5.60;99.90;;;;;;5114804;28;20204;-75
2023/01/16 04:48:34;;;;;;;3.43;2.87;;;5.50;99.90;;;;;;5114849;28;20274;-69
2023/01/16 04:51:03;;;;;;;2.67;2.40;;;5.50;99.90;;;;;;5114899;28;20196;-70
2023/01/16 04:53:32;;;;;;;2.93;2.30;;;5.60;99.90;;;;;;5114554;28;20233;-71
2023/01/16 04:56:03;;;;;;;3.43;2.30;;;5.50;99.90;;;;;;5114596;28;20200;-76
2023/01/16 04:58:31;;;;;;;3.63;2.67;;;5.60;99.90;;;;;;5114575;28;20191;-70
2023/01/16 05:01:00;;;;;;;3.07;2.37;;;5.60;99.90;;;;;;5114414;28;20280;-71
2023/01/16 05:03:29;;;;;;;5.80;2.63;;;5.60;99.90;;;;;;5114688;28;20255;-71
2023/01/16 05:05:58;;;;;;;2.73;2.20;;;5.60;99.90;;;;;;5114426;28;20557;-70
2023/01/16 05:08:28;;;;;;;3.10;2.40;;;5.60;99.90;;;;;;5114425;28;20208;-71
2023/01/16 05:11:00;;;;;;;3.00;2.43;;;5.50;99.90;;;;;;5114297;28;20192;-70
2023/01/16 05:13:31;;;;;;;4.40;2.50;;;5.60;99.90;;;;;;5114253;28;20751;-71
2023/01/16 05:16:00;;;;;;;3.30;2.80;;;5.60;99.90;;;;;;5114246;28;20192;-76
2023/01/16 05:18:29;;;;;;;2.30;2.20;;;5.50;99.90;;;;;;5114269;28;20203;-76
2023/01/16 05:20:59;;;;;;;4.17;2.57;;;5.50;99.90;;;;;;5114092;28;20259;-70
2023/01/16 05:23:28;;;;;;;2.70;2.30;;;5.50;99.90;;;;;;5114200;28;20566;-77
2023/01/16 05:25:57;;;;;;;4.77;2.57;;;5.40;99.90;;;;;;5112753;28;20204;-74
2023/01/16 05:28:26;;;;;;;5.37;2.80;;;5.30;99.90;;;;;;5114188;28;20621;-72
2023/01/16 05:30:57;;;;;;;4.97;2.50;;;5.30;99.90;;;;;;5114044;28;20190;-70
2023/01/16 05:33:26;;;;;;;3.00;2.40;;;5.20;99.90;;;;;;5114106;28;20223;-77
2023/01/16 05:35:54;;;;;;;4.57;2.80;;;5.10;99.90;;;;;;5112516;28;20196;-72
2023/01/16 05:38:23;;;;;;;4.43;3.00;;;5.20;99.90;;;;;;5113076;28;20231;-73
2023/01/16 05:40:53;;;;;;;3.57;3.23;;;5.20;99.90;;;;;;5113710;28;21071;-76
2023/01/16 05:43:22;;;;;;;6.23;3.33;;;5.10;99.90;;;;;;5113815;28;20708;-71
2023/01/16 05:45:51;;;;;;;3.43;3.13;;;5.10;99.90;;;;;;5113720;28;20207;-70
2023/01/16 05:48:22;;;;;;;3.97;2.83;;;5.00;99.90;;;;;;5113559;28;20221;-73
2023/01/16 05:50:52;;;;;;;4.40;3.33;;;5.00;99.90;;;;;;5113557;28;20227;-70
2023/01/16 05:53:21;;;;;;;3.87;2.90;;;4.90;99.90;;;;;;5113565;28;20197;-71
2023/01/16 05:55:50;;;;;;;3.20;2.90;;;4.90;99.90;;;;;;5113289;28;20227;-70
2023/01/16 05:58:19;;;;;;;4.53;2.90;;;4.90;99.90;;;;;;5124456;27;20256;-72
2023/01/16 06:00:47;;;;;;;3.13;2.83;;;4.90;99.90;;;;;;5129075;27;20730;-70
2023/01/16 06:03:17;;;;;;;6.47;3.40;;;4.70;99.90;;;;;;5134125;27;20255;-70
2023/01/16 06:05:47;;;;;;;3.10;2.70;;;4.70;99.90;;;;;;5117811;27;20194;-70
2023/01/16 06:08:16;;;;;;;3.13;2.50;;;4.70;99.90;;;;;;5113295;28;20203;-70
2023/01/16 06:10:45;;;;;;;3.37;2.67;;;4.70;99.90;;;;;;5113227;28;20209;-70
2023/01/16 06:13:14;;;;;;;2.97;2.70;;;4.70;99.90;;;;;;5131561;27;20199;-70
2023/01/16 06:15:43;;;;;;;2.90;2.70;;;4.60;99.90;;;;;;5133683;27;20199;-70
2023/01/16 06:18:14;;;;;;;4.23;2.90;;;4.60;99.90;;;;;;5133679;27;20550;-70
2023/01/16 06:20:43;;;;;;;3.93;2.13;;;4.60;99.90;;;;;;5069874;28;20268;-70
2023/01/16 06:23:13;;;;;;;2.73;2.53;;;4.60;99.90;;;;;;5070260;28;20201;-70
2023/01/16 06:25:42;;;;;;;5.43;3.07;;;4.60;99.90;;;;;;5070068;28;20570;-70
2023/01/16 06:28:12;;;;;;;3.63;2.77;;;4.50;99.90;;;;;;5070057;28;20197;-70
2023/01/16 06:30:41;;;;;;;2.43;2.23;;;4.40;99.90;;;;;;5070095;28;20254;-70
2023/01/16 06:33:10;;;;;;;3.80;2.60;;;4.50;99.90;;;;;;5069185;28;20755;-71
2023/01/16 06:35:38;;;;;;;2.73;2.43;;;4.50;99.90;;;;;;5069902;28;20651;-71
2023/01/16 06:38:07;;;;;;;3.63;3.30;;;4.50;99.90;;;;;;5077051;28;20213;-70
2023/01/16 06:40:37;;;;;;;4.63;3.03;;;4.50;99.90;;;;;;5112593;28;20242;-70
2023/01/16 06:43:06;;;;;;;4.83;3.87;;;4.40;99.90;;;;;;5125899;27;20606;-70
2023/01/16 06:45:35;;;;;;;5.83;3.63;;;4.40;99.90;;;;;;5133403;27;20552;-71
2023/01/16 06:48:05;;;;;;;5.67;3.87;;;4.40;99.90;;;;;;5133123;27;20194;-71
2023/01/16 06:50:33;;;;;;;4.53;3.13;;;4.40;99.90;;;;;;5132974;27;20679;-70
2023/01/16 06:53:02;;;;;;;3.67;3.33;;;4.40;99.90;;;;;;5133226;27;20558;-70
2023/01/16 06:55:31;;;;;;;4.20;3.37;;;4.40;99.90;;;;;;5127335;27;20278;-70
2023/01/16 06:58:01;;;;;;;7.37;3.20;;;4.40;99.90;;;;;;5112637;28;20202;-70
2023/01/16 07:00:30;;;;;;;7.77;4.27;;;4.30;99.90;;;;;;5112512;28;20229;-71
2023/01/16 07:02:59;;;;;;;5.30;3.40;;;4.30;99.90;;;;;;5112705;28;20691;-70
2023/01/16 07:05:30;;;;;;;9.10;3.93;;;4.30;99.90;;;;;;5112502;28;20199;-70
2023/01/16 07:07:59;;;;;;;4.40;3.50;;;4.30;99.90;;;;;;5112602;28;20202;-70
2023/01/16 07:10:28;;;;;;;6.27;3.23;;;4.30;99.90;;;;;;5128330;28;20238;-71
2023/01/16 07:12:57;;;;;;;5.27;3.53;;;4.30;99.90;;;;;;5117471;28;20248;-71
2023/01/16 07:23:54;;;;;;;6.63;3.77;;;4.30;99.90;;;;;;5120100;28;20210;-73
2023/01/16 07:26:24;;;;;;;5.90;3.80;;;4.30;99.90;;;;;;5112342;28;20206;-73
2023/01/16 07:28:55;;;;;;;6.03;4.50;;;4.20;99.90;;;;;;5112482;28;20202;-72
2023/01/16 07:31:26;;;;;;;4.60;3.43;;;4.20;99.90;;;;;;5112450;28;20228;-73
2023/01/16 07:33:55;;;;;;;5.43;4.00;;;4.20;99.90;;;;;;5112332;28;20226;-73
2023/01/16 07:36:23;;;;;;;4.17;3.77;;;4.20;99.90;;;;;;5112217;28;20202;-74
2023/01/16 07:38:52;;;;;;;8.07;5.27;;;4.20;99.90;;;;;;5116820;28;20209;-74
2023/01/16 07:41:21;;;;;;;9.27;4.50;;;4.20;99.90;;;;;;5116909;28;20227;-73
2023/01/16 07:43:51;;;;;;;6.27;3.83;;;4.20;99.90;;;;;;5119874;28;20194;-72
2023/01/16 07:46:21;;;;;;;8.43;4.00;;;4.10;99.90;;;;;;5131240;28;20626;-73
2023/01/16 07:48:53;;;;;;;8.77;5.97;;;4.10;99.90;;;;;;5132715;28;20201;-72
2023/01/16 07:51:22;;;;;;;6.60;3.47;;;4.10;99.90;;;;;;5121624;28;20196;-72
2023/01/16 07:53:51;;;;;;;4.53;3.37;;;4.10;99.90;;;;;;5111483;28;20726;-73
2023/01/16 07:56:19;;;;;;;7.47;3.53;;;4.20;99.90;;;;;;5111792;28;20749;-70
2023/01/16 07:58:54;;;;;;;6.27;3.70;;;4.20;99.90;;;;;;5112008;28;20199;-72
2023/01/16 08:01:23;;;;;;;10.17;3.97;;;4.20;99.90;;;;;;5111911;28;20214;-72
2023/01/16 08:03:53;;;;;;;5.73;3.53;;;4.10;99.90;;;;;;5120245;27;20295;-73
2023/01/16 08:06:22;;;;;;;11.90;4.30;;;4.20;99.90;;;;;;5135968;27;20200;-72
2023/01/16 08:08:51;;;;;;;6.57;3.60;;;4.20;99.90;;;;;;5135748;27;20800;-72
2023/01/16 08:11:38;;;;;;;3.73;3.43;;;4.30;99.90;;;;;;5120557;27;20210;-72
2023/01/16 08:14:08;;;;;;;3.90;3.60;;;4.40;99.90;;;;;;5115514;28;20225;-73
2023/01/16 08:16:37;;;;;;;28.27;15.67;;;4.40;99.90;;;;;;5115435;28;20669;-74
2023/01/16 08:19:07;;;;;;;14.07;6.83;;;4.40;99.90;;;;;;5115444;28;20196;-72
2023/01/16 08:21:36;;;;;;;5.60;4.53;;;4.40;99.90;;;;;;5114995;28;20263;-72
2023/01/16 08:24:06;;;;;;;4.70;3.43;;;4.50;99.90;;;;;;5115480;28;20904;-71
2023/01/16 08:26:35;;;;;;;21.00;11.63;;;4.60;99.90;;;;;;5115651;27;20221;-71
2023/01/16 08:29:04;;;;;;;7.27;4.20;;;4.50;99.90;;;;;;5135798;27;20205;-71
2023/01/16 08:31:33;;;;;;;12.87;7.37;;;4.60;99.90;;;;;;5135946;27;20191;-72
2023/01/16 08:34:02;;;;;;;6.83;4.40;;;4.60;99.90;;;;;;5135789;27;20198;-72
2023/01/16 08:36:32;;;;;;;7.90;3.70;;;4.60;99.90;;;;;;5134768;27;20203;-75
2023/01/16 08:39:01;;;;;;;6.87;4.00;;;4.40;99.90;;;;;;5135488;27;20643;-72
2023/01/16 08:52:40;;;;;;;4.37;3.90;;;4.90;99.90;;;;;;5135014;27;20214;-73
2023/01/16 08:55:16;;;;;;;9.00;4.50;;;5.00;99.90;;;;;;5135145;27;20238;-73
2023/01/16 08:57:58;;;;;;;8.70;4.67;;;5.00;99.90;;;;;;5135088;27;20710;-74
2023/01/16 09:00:28;;;;;;;10.30;4.80;;;5.20;99.90;;;;;;5135233;27;20255;-73
2023/01/16 09:02:59;;;;;;;5.50;3.80;;;5.60;99.90;;;;;;5135264;27;20261;-73
2023/01/16 09:05:28;;;;;;;5.20;3.97;;;5.50;99.90;;;;;;5135181;27;20195;-72
2023/01/16 09:07:58;;;;;;;5.47;3.73;;;5.40;99.90;;;;;;5134944;27;20218;-72
2023/01/16 09:10:29;;;;;;;5.83;3.53;;;5.50;99.90;;;;;;5134649;27;20709;-73
2023/01/16 09:15:44;;;;;;;5.57;3.53;;;5.40;99.90;;;;;;5135184;27;20195;-79
2023/01/16 09:18:13;;;;;;;5.80;3.83;;;5.30;99.90;;;;;;5134319;27;20195;-74
2023/01/16 09:20:42;;;;;;;4.80;3.47;;;5.30;99.90;;;;;;5128400;27;20223;-73
2023/01/16 09:23:12;;;;;;;4.43;3.60;;;5.40;99.90;;;;;;5116297;27;20224;-72
2023/01/16 09:25:41;;;;;;;4.80;3.60;;;5.40;99.90;;;;;;5113917;28;20231;-71
2023/01/16 09:28:10;;;;;;;7.40;4.03;;;5.50;99.90;;;;;;5112714;28;20194;-72
2023/01/16 09:30:39;;;;;;;7.90;4.93;;;5.50;99.90;;;;;;5126188;27;20203;-74
2023/01/16 09:33:08;;;;;;;6.73;4.27;;;5.60;99.90;;;;;;5134310;27;20241;-71
2023/01/16 09:35:37;;;;;;;4.20;3.80;;;5.60;99.90;;;;;;5134706;27;20213;-70
2023/01/16 09:38:06;;;;;;;5.50;3.80;;;5.50;99.90;;;;;;5134211;27;20210;-71
2023/01/16 09:40:37;;;;;;;4.33;3.93;;;5.50;99.90;;;;;;5134421;27;20194;-71
2023/01/16 09:43:35;;;;;;;5.03;3.73;;;5.70;99.90;;;;;;5133987;27;20240;-70
2023/01/16 09:46:09;;;;;;;4.77;4.27;;;5.70;99.90;;;;;;5134315;27;20187;-70
2023/01/16 09:48:45;;;;;;;8.40;4.40;;;5.60;99.90;;;;;;5133768;27;20244;-73
2023/01/16 09:51:19;;;;;;;6.93;4.50;;;5.70;99.90;;;;;;5122076;27;20207;-72
2023/01/16 09:59:36;;;;;;;5.77;4.20;;;6.00;99.90;;;;;;5133928;27;20195;-72
2023/01/16 10:02:14;;;;;;;6.67;4.50;;;5.90;99.90;;;;;;5133981;27;20579;-74
2023/01/16 10:04:45;;;;;;;4.40;4.00;;;5.70;99.90;;;;;;5133938;27;20565;-72
2023/01/16 10:07:45;;;;;;;6.20;4.50;;;5.70;99.90;;;;;;5133915;27;20218;-72
2023/01/16 10:10:29;;;;;;;6.60;3.97;;;5.60;99.90;;;;;;5131474;27;20211;-77
2023/01/16 10:13:09;;;;;;;5.43;4.03;;;5.60;99.90;;;;;;5133612;27;20203;-74
2023/01/16 10:15:47;;;;;;;5.57;4.37;;;5.40;99.90;;;;;;5133731;27;20199;-76
2023/01/16 10:18:27;;;;;;;6.27;4.20;;;5.50;99.90;;;;;;5133693;27;20464;-75
2023/01/16 10:21:17;;;;;;;7.30;4.70;;;5.60;99.90;;;;;;5133756;27;20570;-74
2023/01/16 10:23:53;;;;;;;5.17;4.53;;;5.70;99.90;;;;;;5133558;27;20231;-75
2023/01/16 10:26:28;;;;;;;6.13;4.60;;;5.80;99.90;;;;;;5133092;27;20678;-74
2023/01/16 10:29:12;;;;;;;6.33;4.53;;;5.70;99.90;;;;;;5133529;27;20206;-72
2023/01/16 10:31:46;;;;;;;7.40;5.60;;;5.50;99.90;;;;;;5133521;27;20672;-74
2023/01/16 10:34:21;;;;;;;8.13;5.60;;;5.50;99.90;;;;;;5133368;27;20582;-82
2023/01/16 10:36:53;;;;;;;6.93;5.07;;;5.50;99.90;;;;;;5133241;27;20271;-74
2023/01/16 10:39:22;;;;;;;5.93;5.33;;;5.60;99.90;;;;;;5133549;27;20203;-71
2023/01/16 10:50:26;;;;;;;9.03;5.60;;;5.80;99.90;;;;;;5133212;27;20195;-73
2023/01/16 10:53:06;;;;;;;8.40;5.93;;;5.70;99.90;;;;;;5133078;27;20279;-72
2023/01/16 10:55:37;;;;;;;29.63;18.17;;;5.60;99.90;;;;;;5132985;27;20242;-72
2023/01/16 10:58:21;;;;;;;7.60;5.80;;;5.70;99.90;;;;;;5133230;28;20235;-71
2023/01/16 11:00:53;;;;;;;8.33;4.83;;;5.80;99.90;;;;;;5133189;27;20669;-71
2023/01/16 11:03:28;;;;;;;8.60;5.40;;;5.90;99.90;;;;;;5133078;27;20214;-71
2023/01/16 11:06:09;;;;;;;5.93;4.87;;;6.10;99.90;;;;;;5133377;27;20195;-72
2023/01/16 11:08:39;;;;;;;6.80;4.70;;;6.30;99.90;;;;;;5133064;27;20202;-73
2023/01/16 11:18:27;;;;;;;8.10;5.77;;;6.30;99.90;;;;;;5132927;28;20269;-72
2023/01/16 11:19:43;;;;;;;7.07;5.77;;;6.60;99.90;;;;;;5132573;28;20195;-69
2023/01/16 11:22:24;;;;;;;7.63;5.40;;;6.30;99.90;;;;;;5132779;27;20191;-69
2023/01/16 11:24:58;;;;;;;11.07;6.10;;;6.00;99.90;;;;;;5138140;27;20199;-71
2023/01/16 11:27:35;;;;;;;12.60;6.10;;;5.90;99.90;;;;;;5133588;27;20207;-70
2023/01/16 11:30:09;;;;;;;9.30;5.97;;;6.00;99.90;;;;;;5139938;27;20279;-69
2023/01/16 11:32:47;;;;;;;7.73;6.47;;;6.10;99.90;;;;;;5132851;27;20207;-70
2023/01/16 11:35:18;;;;;;;8.33;5.67;;;6.20;99.90;;;;;;5132660;28;20200;-71
2023/01/16 11:37:51;;;;;;;8.13;6.03;;;6.20;99.90;;;;;;5135162;27;20191;-70
2023/01/16 11:40:23;;;;;;;8.60;5.33;;;6.30;99.90;;;;;;5136717;27;20200;-70
2023/01/16 11:46:03;;;;;;;9.77;6.30;;;6.60;99.90;;;;;;5136386;27;20278;-70
2023/01/16 11:48:40;;;;;;;8.47;5.30;;;6.50;99.90;;;;;;5150920;27;20255;-73
2023/01/16 11:51:14;;;;;;;6.87;5.30;;;6.50;99.90;;;;;;5136723;27;20195;-71
2023/01/16 11:53:45;;;;;;;8.90;5.07;;;6.60;99.90;;;;;;5140622;27;20677;-71
2023/01/16 11:56:48;;;;;;;8.10;5.50;;;6.70;99.90;;;;;;5128333;27;20224;-70
2023/01/16 12:00:03;;;;;;;8.13;5.53;;;6.50;99.90;;;;;;5115155;28;20238;-73
2023/01/16 12:03:04;;;;;;;5.70;5.10;;;6.80;99.80;;;;;;5053213;28;20284;-71
2023/01/16 12:05:56;;;;;;;9.37;5.67;;;6.80;98.20;;;;;;5052900;28;20237;-76
2023/01/16 12:08:43;;;;;;;14.00;8.50;;;6.80;99.50;;;;;;5052874;28;20194;-70
2023/01/16 12:11:16;;;;;;;15.00;6.90;;;7.00;99.90;;;;;;5052612;28;20205;-75
2023/01/16 12:16:50;;;;;;;7.80;5.73;;;7.30;96.90;;;;;;5052835;28;20782;-73
2023/01/16 12:19:43;;;;;;;10.40;5.57;;;7.50;95.60;;;;;;5052813;28;20203;-71
2023/01/16 12:22:24;;;;;;;7.77;4.87;;;7.50;95.60;;;;;;5052696;28;20205;-71
2023/01/16 12:25:02;;;;;;;10.47;4.43;;;7.30;95.40;;;;;;5058057;28;20551;-72
2023/01/16 12:27:44;;;;;;;9.53;5.07;;;7.00;96.20;;;;;;5072539;28;20204;-73
2023/01/16 12:30:26;;;;;;;10.20;4.93;;;6.90;97.10;;;;;;5067700;28;20193;-72
2023/01/16 12:33:11;;;;;;;7.30;4.90;;;6.90;97.90;;;;;;5052228;28;20667;-72
2023/01/16 12:35:51;;;;;;;7.03;5.00;;;6.80;97.30;;;;;;5052205;28;20281;-75
2023/01/16 12:38:27;;;;;;;6.70;4.37;;;6.80;98.20;;;;;;5082888;28;20199;-71
2023/01/16 12:44:32;;;;;;;68.40;18.67;;;6.90;98.10;;;;;;5114897;28;20226;-76
2023/01/16 12:47:20;;;;;;;7.97;5.50;;;7.20;97.30;;;;;;5114656;28;20283;-73
2023/01/16 12:50:04;;;;;;;10.53;5.30;;;7.30;95.40;;;;;;5132233;27;20200;-71
2023/01/16 12:52:54;;;;;;;14.13;8.20;;;7.30;96.30;;;;;;5135733;27;20199;-73
2023/01/16 12:55:35;;;;;;;9.27;6.07;;;7.20;95.40;;;;;;5135188;27;20768;-70
2023/01/16 12:58:19;;;;;;;8.90;5.90;;;7.10;96.00;;;;;;5135172;27;20193;-72
2023/01/16 13:00:54;;;;;;;25.93;10.37;;;7.10;96.50;;;;;;5135090;27;20187;-72
2023/01/16 13:03:34;;;;;;;18.33;8.67;;;6.90;97.30;;;;;;5126083;27;20314;-72
2023/01/16 13:06:04;;;;;;;128.43;45.40;;;6.80;96.90;;;;;;5129893;27;20226;-77
2023/01/16 13:08:37;;;;;;;20.27;9.77;;;7.10;97.80;;;;;;5126320;27;20676;-78
2023/01/16 13:14:04;;;;;;;10.20;6.37;;;6.50;98.20;;;;;;5134971;27;20195;-75
2023/01/16 13:16:37;;;;;;;8.83;5.50;;;6.30;99.90;;;;;;5134836;27;20314;-73
2023/01/16 13:19:14;;;;;;;14.10;8.47;;;6.30;99.90;;;;;;5131145;27;20223;-74
2023/01/16 13:21:53;;;;;;;22.20;10.93;;;6.40;99.60;;;;;;5134395;27;20200;-74
2023/01/16 13:24:28;;;;;;;48.67;23.33;;;6.40;99.40;;;;;;5134914;27;20218;-72
2023/01/16 13:27:03;;;;;;;13.73;9.60;;;6.60;98.70;;;;;;5134831;27;20197;-73
2023/01/16 13:29:37;;;;;;;31.70;14.90;;;6.30;99.90;;;;;;5133084;27;20194;-74
2023/01/16 13:32:14;;;;;;;18.37;10.97;;;6.40;99.90;;;;;;5134516;27;20210;-74
2023/01/16 13:34:53;;;;;;;10.60;6.53;;;6.60;99.60;;;;;;5134767;27;20207;-76
2023/01/16 13:37:54;;;;;;;11.57;6.13;;;6.30;99.60;;;;;;5134533;27;20305;-74
2023/01/16 13:40:51;;;;;;;7.10;6.40;;;6.20;99.90;;;;;;5091305;28;20208;-73
2023/01/16 13:46:13;;;;;;;7.63;5.87;;;5.80;99.90;;;;;;5091698;28;20660;-73
2023/01/16 13:48:44;;;;;;;8.93;5.83;;;5.40;99.90;;;;;;5083391;28;20630;-73
2023/01/16 13:51:16;;;;;;;9.67;6.80;;;5.50;99.90;;;;;;5079429;28;20208;-72
2023/01/16 13:53:52;;;;;;;11.83;6.80;;;5.50;99.90;;;;;;5091001;28;20209;-71
2023/01/16 13:56:23;;;;;;;10.73;6.30;;;5.40;99.90;;;;;;5091063;28;20218;-71
2023/01/16 13:59:02;;;;;;;16.07;6.80;;;5.20;99.90;;;;;;5090636;28;20197;-73
2023/01/16 14:01:38;;;;;;;11.50;6.53;;;5.10;99.90;;;;;;5090447;28;20375;-73
2023/01/16 14:04:29;;;;;;;10.47;7.43;;;5.00;99.90;;;;;;5090897;28;20234;-73
2023/01/16 14:10:18;;;;;;;30.80;14.00;;;5.20;99.90;;;;;;5073863;28;20192;-77
2023/01/16 14:13:15;;;;;;;9.33;6.83;;;5.30;99.90;;;;;;5090461;28;20210;-76
2023/01/16 14:18:42;;;;;;;22.80;16.60;;;5.10;99.90;;;;;;5130458;27;20203;-75
2023/01/16 14:21:18;;;;;;;20.97;9.13;;;5.20;99.90;;;;;;5133586;27;20294;-74
2023/01/16 14:24:02;;;;;;;34.77;25.60;;;5.10;99.90;;;;;;5112989;28;20215;-72
2023/01/16 14:26:42;;;;;;;10.67;7.43;;;5.20;99.90;;;;;;5113074;28;20207;-78
2023/01/16 14:29:18;;;;;;;40.00;18.30;;;5.10;99.90;;;;;;5113115;28;20215;-76
2023/01/16 14:31:54;;;;;;;32.90;18.70;;;5.10;99.90;;;;;;5113158;28;20683;-75
2023/01/16 14:34:28;;;;;;;35.93;25.20;;;5.20;99.90;;;;;;5113112;28;20293;-76
2023/01/16 14:37:03;;;;;;;17.53;10.03;;;5.00;99.90;;;;;;5113047;28;20275;-80